Batchwood, United Kingdom
Current Conditions -  °F | °C
As of 6:20 AM on Sunday 26 Oct 2014 (Local Time) from EGGW Reporting Station
Broken Clouds Broken Clouds  
Wind Chill: 11°   Ceiling: 3200
Heat Index: 11°   Visibility: 6mi
Dew Point:   Wind: 12mph
Humidity: 82%   Direction: 220°SW
Pressure: 30.12"   Gusts: NA
Location:  51.74°N, 0.35°W
Report Text: EGGW 260520Z 22010KT 9999 BKN032 11/08 Q1020
Loading
Personal Weather Stations






























Interactive Weather Map
Tropical Storm Tracking
New forecast layout! Learn more

10-Day Weather Forecast

Advertisements
Track Severe Weather on mobile